CCA4580 ZHEC-RJTT
Flight info
| Callsign | CCA4580 |
|---|---|
| Flight time | N/A |
| Altitude | 37100 |
| Route | URGEB R343 HFE W163 VEMEX W545 ESBAG R343 PK G455 HSH W38 PINOT W115 MATNU G455 LAMEN/N0480F371 A593 SADLI Y590 BEDAR Y591 FUE V40 WOODY Y40 OOITA Y23 ARTIC Y71 XAC |
| Aircraft | A346/H-SDE2E3FGHIJ3J4J5M1RWXY/LB1D1 |
Departure
| Time | 2026-05-07 04:48 |
|---|---|
| Airport | Ezhou Huahu International Airport (ZHEC) |
Arrival
| Time | N/A |
|---|---|
| Airport | Tokyo Haneda International Airport (RJTT) |
| Time | Latitude | Longitude | Altitude | Speed | Heading |
|---|---|---|---|---|---|
| 2026-05-07 04:33 | 30.33118 | 115.04215 | 95 ft | 0 kts | 190° |
| 2026-05-07 04:38 | 30.33120 | 115.04215 | 95 ft | 1 kts | 190° |
| 2026-05-07 04:39 | 30.33135 | 115.04217 | 95 ft | 2 kts | 178° |
| 2026-05-07 04:39 | 30.33150 | 115.04215 | 95 ft | 2 kts | 166° |
| 2026-05-07 04:39 | 30.33164 | 115.04209 | 95 ft | 2 kts | 155° |
| 2026-05-07 04:39 | 30.33177 | 115.04201 | 95 ft | 2 kts | 144° |
| 2026-05-07 04:40 | 30.33189 | 115.04190 | 95 ft | 2 kts | 134° |
| 2026-05-07 04:40 | 30.33198 | 115.04176 | 95 ft | 2 kts | 123° |
| 2026-05-07 04:40 | 30.33206 | 115.04161 | 95 ft | 2 kts | 112° |
| 2026-05-07 04:40 | 30.33211 | 115.04144 | 95 ft | 2 kts | 102° |
| 2026-05-07 04:41 | 30.33212 | 115.04138 | 95 ft | 0 kts | 98° |
| 2026-05-07 04:43 | 30.33209 | 115.04155 | 95 ft | 3 kts | 99° |
| 2026-05-07 04:43 | 30.33203 | 115.04198 | 95 ft | 7 kts | 100° |
| 2026-05-07 04:44 | 30.33192 | 115.04266 | 95 ft | 10 kts | 101° |
| 2026-05-07 04:44 | 30.33177 | 115.04357 | 95 ft | 12 kts | 100° |
| 2026-05-07 04:44 | 30.33141 | 115.04426 | 95 ft | 11 kts | 160° |
| 2026-05-07 04:44 | 30.33054 | 115.04423 | 95 ft | 13 kts | 190° |
| 2026-05-07 04:45 | 30.32954 | 115.04401 | 95 ft | 15 kts | 189° |
| 2026-05-07 04:45 | 30.32844 | 115.04380 | 95 ft | 16 kts | 189° |
| 2026-05-07 04:45 | 30.32725 | 115.04356 | 95 ft | 17 kts | 189° |
| 2026-05-07 04:45 | 30.32601 | 115.04331 | 95 ft | 18 kts | 191° |
| 2026-05-07 04:46 | 30.32468 | 115.04301 | 95 ft | 19 kts | 188° |
| 2026-05-07 04:46 | 30.32365 | 115.04282 | 95 ft | 11 kts | 190° |
| 2026-05-07 04:46 | 30.32320 | 115.04307 | 95 ft | 8 kts | 111° |
| 2026-05-07 04:46 | 30.32305 | 115.04388 | 95 ft | 11 kts | 101° |
| 2026-05-07 04:47 | 30.32289 | 115.04482 | 95 ft | 9 kts | 101° |
| 2026-05-07 04:47 | 30.32307 | 115.04549 | 95 ft | 10 kts | 36° |
| 2026-05-07 04:47 | 30.32494 | 115.04605 | 95 ft | 66 kts | 10° |
| 2026-05-07 04:47 | 30.33230 | 115.04758 | 95 ft | 145 kts | 9° |
| 2026-05-07 04:48 | 30.34432 | 115.04999 | 263 ft | 193 kts | 9° |
| 2026-05-07 04:48 | 30.35757 | 115.05321 | 1010 ft | 202 kts | 16° |
| 2026-05-07 04:48 | 30.36940 | 115.06170 | 1946 ft | 209 kts | 51° |
| 2026-05-07 04:48 | 30.37561 | 115.07678 | 2939 ft | 213 kts | 68° |
| 2026-05-07 04:49 | 30.38055 | 115.09279 | 3840 ft | 220 kts | 69° |
| 2026-05-07 04:49 | 30.38592 | 115.11025 | 4534 ft | 240 kts | 69° |
| 2026-05-07 04:49 | 30.39185 | 115.12899 | 5188 ft | 255 kts | 69° |
| 2026-05-07 04:49 | 30.39603 | 115.14191 | 5532 ft | 266 kts | 68° |
| 2026-05-07 04:50 | 30.40496 | 115.16914 | 6529 ft | 275 kts | 68° |
| 2026-05-07 04:50 | 30.41179 | 115.18984 | 7393 ft | 277 kts | 68° |
| 2026-05-07 04:50 | 30.41865 | 115.21057 | 8212 ft | 280 kts | 68° |
| 2026-05-07 04:50 | 30.42323 | 115.22439 | 8758 ft | 282 kts | 68° |
| 2026-05-07 04:51 | 30.44527 | 115.27078 | 10575 ft | 291 kts | 40° |
| 2026-05-07 04:51 | 30.46265 | 115.28370 | 11009 ft | 308 kts | 28° |
| 2026-05-07 04:51 | 30.48194 | 115.29542 | 11404 ft | 325 kts | 27° |
| 2026-05-07 04:52 | 30.50264 | 115.30772 | 11776 ft | 344 kts | 27° |
| 2026-05-07 04:52 | 30.52464 | 115.32080 | 12132 ft | 362 kts | 27° |
| 2026-05-07 04:52 | 30.54745 | 115.33442 | 12523 ft | 378 kts | 27° |
| 2026-05-07 04:52 | 30.57097 | 115.34849 | 13237 ft | 384 kts | 27° |
| 2026-05-07 04:53 | 30.59469 | 115.36217 | 14062 ft | 386 kts | 22° |
| 2026-05-07 04:53 | 30.62030 | 115.37180 | 14841 ft | 389 kts | 19° |
| 2026-05-07 04:53 | 30.64369 | 115.38700 | 15518 ft | 394 kts | 41° |
| 2026-05-07 04:53 | 30.66019 | 115.41232 | 16213 ft | 400 kts | 64° |
| 2026-05-07 04:54 | 30.66860 | 115.44300 | 16919 ft | 405 kts | 77° |
| 2026-05-07 04:54 | 30.67332 | 115.47557 | 17580 ft | 410 kts | 78° |
| 2026-05-07 04:54 | 30.68154 | 115.50696 | 18149 ft | 412 kts | 60° |
| 2026-05-07 04:54 | 30.69926 | 115.53287 | 18761 ft | 412 kts | 40° |
| 2026-05-07 04:55 | 30.72270 | 115.55153 | 19397 ft | 413 kts | 27° |
| 2026-05-07 04:55 | 30.74855 | 115.56677 | 20014 ft | 417 kts | 25° |
| 2026-05-07 04:55 | 30.77448 | 115.58166 | 20592 ft | 421 kts | 25° |
| 2026-05-07 04:55 | 30.80089 | 115.59699 | 21171 ft | 426 kts | 25° |
| 2026-05-07 04:56 | 30.82727 | 115.61256 | 21737 ft | 430 kts | 25° |
| 2026-05-07 04:56 | 30.85382 | 115.62842 | 22293 ft | 433 kts | 25° |
| 2026-05-07 04:56 | 30.88093 | 115.64473 | 22836 ft | 437 kts | 25° |
| 2026-05-07 04:56 | 30.90803 | 115.66112 | 23329 ft | 442 kts | 25° |
| 2026-05-07 04:57 | 30.93524 | 115.67761 | 23731 ft | 449 kts | 25° |
| 2026-05-07 04:57 | 30.96301 | 115.69444 | 24096 ft | 456 kts | 25° |
| 2026-05-07 04:57 | 30.99150 | 115.71173 | 24459 ft | 464 kts | 25° |
| 2026-05-07 04:57 | 31.02022 | 115.72916 | 24816 ft | 471 kts | 26° |
| 2026-05-07 04:58 | 31.04945 | 115.74693 | 25176 ft | 478 kts | 26° |
| 2026-05-07 04:58 | 31.07895 | 115.76491 | 25582 ft | 483 kts | 26° |
| 2026-05-07 04:58 | 31.10874 | 115.78312 | 26047 ft | 486 kts | 26° |
| 2026-05-07 04:58 | 31.13878 | 115.80148 | 26513 ft | 490 kts | 26° |
| 2026-05-07 04:59 | 31.16916 | 115.82005 | 26962 ft | 493 kts | 26° |
| 2026-05-07 04:59 | 31.19855 | 115.84097 | 27360 ft | 500 kts | 36° |
| 2026-05-07 04:59 | 31.22342 | 115.86955 | 27762 ft | 505 kts | 51° |
| 2026-05-07 04:59 | 31.24183 | 115.90459 | 28165 ft | 510 kts | 65° |
| 2026-05-07 05:00 | 31.25487 | 115.94302 | 28622 ft | 511 kts | 69° |
| 2026-05-07 05:00 | 31.26710 | 115.98158 | 29180 ft | 511 kts | 70° |
| 2026-05-07 05:00 | 31.27939 | 116.02059 | 29760 ft | 510 kts | 70° |
| 2026-05-07 05:00 | 31.29178 | 116.05961 | 30316 ft | 509 kts | 69° |
| 2026-05-07 05:01 | 31.30415 | 116.09824 | 30846 ft | 509 kts | 69° |
| 2026-05-07 05:01 | 31.31654 | 116.13673 | 31351 ft | 508 kts | 69° |
| 2026-05-07 05:01 | 31.32909 | 116.17555 | 31858 ft | 508 kts | 69° |
| 2026-05-07 05:01 | 31.34152 | 116.21394 | 32352 ft | 507 kts | 69° |
| 2026-05-07 05:02 | 31.35404 | 116.25266 | 32845 ft | 507 kts | 69° |
| 2026-05-07 05:02 | 31.36644 | 116.29102 | 33314 ft | 506 kts | 69° |
| 2026-05-07 05:02 | 31.37876 | 116.32915 | 33758 ft | 506 kts | 68° |
| 2026-05-07 05:02 | 31.39127 | 116.36791 | 34206 ft | 506 kts | 68° |
| 2026-05-07 05:03 | 31.40372 | 116.40653 | 34656 ft | 505 kts | 68° |
| 2026-05-07 05:03 | 31.41597 | 116.44460 | 35094 ft | 504 kts | 68° |
| 2026-05-07 05:03 | 31.42824 | 116.48273 | 35505 ft | 503 kts | 69° |
| 2026-05-07 05:03 | 31.44057 | 116.52113 | 35860 ft | 504 kts | 68° |
| 2026-05-07 05:04 | 31.45469 | 116.55864 | 36124 ft | 503 kts | 57° |
| 2026-05-07 05:04 | 31.47556 | 116.59158 | 36359 ft | 502 kts | 47° |
| 2026-05-07 05:04 | 31.49884 | 116.62185 | 36610 ft | 503 kts | 45° |
| 2026-05-07 05:04 | 31.52229 | 116.65187 | 36840 ft | 504 kts | 46° |
| 2026-05-07 05:05 | 31.54557 | 116.68302 | 37041 ft | 506 kts | 47° |
| 2026-05-07 05:05 | 31.56823 | 116.71463 | 37124 ft | 510 kts | 48° |
| 2026-05-07 05:05 | 31.60971 | 116.78363 | 37133 ft | 522 kts | 59° |
| 2026-05-07 05:06 | 31.63949 | 116.86174 | 37128 ft | 525 kts | 69° |
| 2026-05-07 05:06 | 31.66393 | 116.94209 | 37077 ft | 525 kts | 70° |
| 2026-05-07 05:07 | 31.68824 | 117.02042 | 37048 ft | 526 kts | 69° |
| 2026-05-07 05:07 | 31.71332 | 117.10116 | 37034 ft | 527 kts | 70° |
| 2026-05-07 05:08 | 31.73835 | 117.18235 | 37028 ft | 528 kts | 70° |
| 2026-05-07 05:08 | 31.75993 | 117.26428 | 37025 ft | 528 kts | 76° |
| 2026-05-07 05:09 | 31.77358 | 117.34895 | 37026 ft | 527 kts | 83° |
| 2026-05-07 05:09 | 31.77887 | 117.43468 | 37025 ft | 526 kts | 89° |
| 2026-05-07 05:10 | 31.78053 | 117.52045 | 37025 ft | 526 kts | 90° |
| 2026-05-07 05:10 | 31.78223 | 117.60637 | 37025 ft | 526 kts | 90° |
| 2026-05-07 05:11 | 31.78412 | 117.69262 | 37022 ft | 526 kts | 90° |
| 2026-05-07 05:11 | 31.78584 | 117.77826 | 37024 ft | 526 kts | 90° |
| 2026-05-07 05:12 | 31.78737 | 117.86428 | 37024 ft | 526 kts | 90° |
| 2026-05-07 05:12 | 31.78883 | 117.95078 | 37025 ft | 526 kts | 90° |
| 2026-05-07 05:13 | 31.79021 | 118.03657 | 37025 ft | 526 kts | 90° |
| 2026-05-07 05:13 | 31.79166 | 118.12243 | 37024 ft | 526 kts | 90° |
| 2026-05-07 05:14 | 31.79340 | 118.20815 | 37025 ft | 526 kts | 90° |
| 2026-05-07 05:14 | 31.79546 | 118.29441 | 37025 ft | 527 kts | 88° |
| 2026-05-07 05:15 | 31.80222 | 118.37978 | 37023 ft | 527 kts | 84° |
| 2026-05-07 05:15 | 31.81024 | 118.46523 | 37025 ft | 527 kts | 84° |
| 2026-05-07 05:16 | 31.81816 | 118.55132 | 37024 ft | 527 kts | 84° |
| 2026-05-07 05:16 | 31.82581 | 118.63660 | 37025 ft | 527 kts | 84° |
| 2026-05-07 05:17 | 31.83343 | 118.72224 | 37022 ft | 527 kts | 85° |
| 2026-05-07 05:17 | 31.83685 | 118.80836 | 37025 ft | 526 kts | 92° |
| 2026-05-07 05:18 | 31.83146 | 118.89394 | 37025 ft | 523 kts | 100° |
| 2026-05-07 05:18 | 31.81702 | 118.97731 | 37024 ft | 520 kts | 108° |
| 2026-05-07 05:19 | 31.79532 | 119.05800 | 37025 ft | 518 kts | 111° |
| 2026-05-07 05:19 | 31.77241 | 119.13830 | 37025 ft | 518 kts | 111° |
| 2026-05-07 05:20 | 31.74964 | 119.21861 | 37024 ft | 518 kts | 110° |
| 2026-05-07 05:20 | 31.72700 | 119.29869 | 37025 ft | 518 kts | 110° |